Accueil
METAR-TAF:

METAR-TAF

Aéroports :

Aéroport du Kruger Mpumalanga

Parc national Kruger, Afrique du Sud

latitude: 25-23-00S, longitude: 31-06-20E, altitude: 862 m

Observation

Le bulletin a été fait il y a 57 minutes, à 21:00 UTC
Vent 6 kt de ouest/sud-ouest
Température 15°C
Humidité 44%
Pression 1026 hPa

METAR: FAKN 122100Z AUTO 25006KT //// // ////// 15/03 Q1026

Heure: 23:57 (21:57 UTC)

Prévision

Le bulletin a été fait il y a 12 heures et 57 minutes, à 09:00 UTC
Prévision valable du 12 à 10 UTC au 12 à 18 UTC
Vent 3 kt de direction variable
Visibilité 10 km ou plus
pas de nuages en-dessous de 1500 mètres et pas de cumulonimbus.

TAF: FAKN 120900Z 1210/1218 VRB03KT CAVOK TX22/1213Z TN11/1218Z

Observations et prévisions météorologiques de plus de 4000 aéroports (messages METAR et TAF).

Les stations disponibles sont représentées par des disques jaunes et rouges sur la carte.

Passer la souris dessus pour voir le nom de la station.

Cliquer dessus pour voir les observations et prévisions météorologiques.

Pour changer de carte: cliquez sur les boutons verts avec une croix noire pour zoomer, sur le bouton vert avec un tiret pour effectuer un zoom arrière, ou sur les flèches vertes pour les cartes adjacentes.


METAR-TAF: